DTMB/MIR METAR and TAF weather

Enter ICAO airport designator
Station Type Date Time Source
DTMB METAR 2023/02/04 03:00 UTC NOAA

DTMB 040300Z 30007KT 9999 FEW040 13/09 Q1026 NOSIG


Station Type Date Time Source
DTMB Decoded METAR 2023/02/04 03:00 UTC NOAA

Habib Bourguiba , Tunisia (DTMB) 35-46N 010-45E
Feb 03, 2023 - 10:00 PM EST / 2023.02.04 0300 UTC
Wind: from the WNW (300 degrees) at 8 MPH (7 KT):0
Visibility: greater than 7 mile(s):0
Sky conditions: mostly clear
Temperature: 55 F (13 C)
Dew Point: 48 F (9 C)
Relative Humidity: 76%
Pressure (altimeter): 30.30 in. Hg (1026 hPa)
ob: DTMB 040300Z 30007KT 9999 FEW040 13/09 Q1026 NOSIG
cycle: 3

Station Type Date Time Source
DTMB TAF 2023/02/03 18:59 UTC NOAA

TAF DTMB 031700Z 0318/0418 03010KT 9999 BKN023
BECMG 0401/0403 33010KT

Example: see airport list